M I D A S
Marine Information and Data Acquisition System
Tripno 2155 of the Zeeleeuw from 2011-08-01 08:31:43 to 2011-08-01 09:38:39
Back to CruiseResearch ActivitiesStationsMapUnderway DataData graphs

EquipmentUnitsComment
TimeDGPSUTC
LatitudeDGPSDM.mWGS84
LongitudeDGPSDM.mWGS84
HeadingGyrodeg 
SOGDGPSknotsSpeed over ground
COGDGPSdegCourse over ground
DepthEcho soundermeters200 kHz
Missing or incorrect values are displayed as -999
Navigation data collected by the RV Zeeleeuw from 2011-08-01 06:11:46 to 2011-08-01 10:16:22
                                                                                    Next 1000 lines
Time Latitude Longitude Heading SOG COG Depth
2011-08-01 06:11:56 51°13.635 2°56.021 125.8 0.1 35 -999
2011-08-01 06:12:01 51°13.635 2°56.021 125.8 0.1 219 -999
2011-08-01 06:12:06 51°13.635 2°56.021 125.8 0.1 36 -999
2011-08-01 06:12:11 51°13.635 2°56.02 125.8 0.1 207 -999
2011-08-01 06:12:16 51°13.635 2°56.02 125.8 0.1 38 -999
2011-08-01 06:12:21 51°13.635 2°56.02 125.8 0.1 221 -999
2011-08-01 06:12:26 51°13.636 2°56.02 125.8 0.1 40 -999
2011-08-01 06:12:30 51°13.635 2°56.02 125.9 0.1 202 -999
2011-08-01 06:12:35 51°13.636 2°56.02 125.9 0.1 26 -999
2011-08-01 06:12:40 51°13.636 2°56.019 125.9 -999 197 -999
2011-08-01 06:12:45 51°13.636 2°56.019 125.9 -999 154 -999
2011-08-01 06:12:50 51°13.636 2°56.019 125.9 -999 205 -999
2011-08-01 06:12:55 51°13.636 2°56.019 125.9 -999 223 -999
2011-08-01 06:13:00 51°13.636 2°56.019 125.9 -999 114 -999
2011-08-01 06:13:05 51°13.636 2°56.019 125.9 -999 182 -999
2011-08-01 06:13:10 51°13.636 2°56.019 125.9 -999 174 -999
2011-08-01 06:13:15 51°13.636 2°56.019 125.9 -999 194 -999
2011-08-01 06:13:20 51°13.637 2°56.019 125.9 -999 325 -999
2011-08-01 06:13:26 51°13.637 2°56.019 125.9 -999 67 -999
2011-08-01 06:13:31 51°13.637 2°56.019 125.9 -999 236 -999
2011-08-01 06:13:36 51°13.637 2°56.019 125.9 -999 196 -999
2011-08-01 06:13:41 51°13.637 2°56.019 125.9 -999 72 -999
2011-08-01 06:13:46 51°13.637 2°56.019 125.9 -999 23 -999
2011-08-01 06:13:51 51°13.637 2°56.019 125.9 -999 204 -999
2011-08-01 06:13:56 51°13.637 2°56.02 125.9 -999 168 -999
2011-08-01 06:14:01 51°13.637 2°56.02 125.9 -999 28 -999
2011-08-01 06:14:06 51°13.637 2°56.02 125.9 -999 89 -999
2011-08-01 06:14:11 51°13.636 2°56.02 126 -999 193 -999
2011-08-01 06:14:16 51°13.636 2°56.02 126.1 -999 189 -999
2011-08-01 06:14:20 51°13.637 2°56.02 126.1 -999 30 -999
2011-08-01 06:14:26 51°13.637 2°56.02 126.2 -999 178 -999
2011-08-01 06:14:30 51°13.637 2°56.02 126.2 -999 44 -999
2011-08-01 06:14:35 51°13.637 2°56.02 126.3 -999 159 -999
2011-08-01 06:14:41 51°13.637 2°56.02 126.3 -999 175 -999
2011-08-01 06:14:46 51°13.637 2°56.02 126.3 -999 56 -999
2011-08-01 06:14:50 51°13.637 2°56.02 126.4 -999 272 -999
2011-08-01 06:14:55 51°13.637 2°56.02 126.4 -999 205 -999
2011-08-01 06:15:01 51°13.637 2°56.02 126.4 -999 103 -999
2011-08-01 06:15:06 51°13.637 2°56.02 126.4 -999 24 -999
2011-08-01 06:15:10 51°13.637 2°56.02 126.4 -999 13 -999
2011-08-01 06:15:15 51°13.637 2°56.019 126.4 -999 357 -999
2011-08-01 06:15:21 51°13.637 2°56.019 126.4 -999 359 -999
2011-08-01 06:15:26 51°13.637 2°56.019 126.4 -999 245 -999
2011-08-01 06:15:31 51°13.637 2°56.019 126.4 -999 38 -999
2011-08-01 06:15:36 51°13.637 2°56.019 126.4 -999 37 -999
2011-08-01 06:15:40 51°13.637 2°56.019 126.4 -999 218 -999
2011-08-01 06:15:45 51°13.637 2°56.019 126.4 -999 254 -999
2011-08-01 06:15:50 51°13.637 2°56.018 126.4 -999 237 -999
2011-08-01 06:15:56 51°13.637 2°56.019 126.4 -999 33 -999
2011-08-01 06:16:01 51°13.637 2°56.019 126.4 -999 76 -999
2011-08-01 06:16:05 51°13.637 2°56.019 126.4 -999 122 -999
2011-08-01 06:16:10 51°13.637 2°56.019 126.4 -999 183 -999
2011-08-01 06:16:15 51°13.637 2°56.019 126.4 -999 339 -999
2011-08-01 06:16:20 51°13.637 2°56.019 126.4 -999 23 -999
2011-08-01 06:16:25 51°13.637 2°56.019 126.4 -999 309 -999
2011-08-01 06:16:30 51°13.637 2°56.019 126.4 -999 232 -999
2011-08-01 06:16:35 51°13.637 2°56.019 126.4 -999 28 -999
2011-08-01 06:16:40 51°13.636 2°56.019 126.4 -999 102 -999
2011-08-01 06:16:45 51°13.636 2°56.019 126.4 -999 35 -999
2011-08-01 06:16:51 51°13.636 2°56.019 126.4 -999 125 -999
2011-08-01 06:16:56 51°13.636 2°56.019 126.4 -999 126 -999
2011-08-01 06:17:01 51°13.636 2°56.019 126.4 -999 37 -999
2011-08-01 06:17:05 51°13.636 2°56.019 126.4 -999 261 -999
2011-08-01 06:17:11 51°13.636 2°56.019 126.4 -999 68 -999
2011-08-01 06:17:16 51°13.636 2°56.019 126.4 -999 98 -999
2011-08-01 06:17:20 51°13.637 2°56.019 126.4 -999 57 -999
2011-08-01 06:17:25 51°13.637 2°56.019 126.4 -999 337 -999
2011-08-01 06:17:31 51°13.637 2°56.019 126.4 -999 263 -999
2011-08-01 06:17:36 51°13.637 2°56.019 126.5 -999 58 -999
2011-08-01 06:17:40 51°13.637 2°56.019 126.4 -999 38 -999
2011-08-01 06:17:45 51°13.637 2°56.019 126.4 -999 91 -999
2011-08-01 06:17:50 51°13.637 2°56.019 126.4 -999 120 -999
2011-08-01 06:17:55 51°13.637 2°56.019 126.4 -999 76 -999
2011-08-01 06:18:00 51°13.636 2°56.019 126.4 -999 114 -999
2011-08-01 06:18:05 51°13.636 2°56.019 126.4 -999 290 -999
2011-08-01 06:18:10 51°13.636 2°56.019 126.4 -999 154 -999
2011-08-01 06:18:15 51°13.636 2°56.019 126.4 -999 11 -999
2011-08-01 06:18:20 51°13.636 2°56.019 126.4 -999 203 -999
2011-08-01 06:18:25 51°13.636 2°56.019 126.4 -999 270 -999
2011-08-01 06:18:30 51°13.636 2°56.019 126.4 -999 354 -999
2011-08-01 06:18:35 51°13.636 2°56.019 126.4 -999 181 -999
2011-08-01 06:18:40 51°13.636 2°56.019 126.4 -999 25 -999
2011-08-01 06:18:45 51°13.636 2°56.019 126.4 -999 21 -999
2011-08-01 06:18:50 51°13.636 2°56.019 126.4 -999 357 -999
2011-08-01 06:18:55 51°13.636 2°56.019 126.4 -999 308 -999
2011-08-01 06:19:00 51°13.636 2°56.019 126.4 -999 158 -999
2011-08-01 06:19:05 51°13.636 2°56.019 126.4 -999 326 -999
2011-08-01 06:19:10 51°13.636 2°56.019 126.4 -999 340 -999
2011-08-01 06:19:15 51°13.636 2°56.019 126.3 -999 33 -999
2011-08-01 06:19:20 51°13.636 2°56.019 126.3 -999 54 -999
2011-08-01 06:19:25 51°13.636 2°56.019 126.3 -999 81 -999
2011-08-01 06:19:30 51°13.636 2°56.019 126.3 -999 71 -999
2011-08-01 06:19:35 51°13.636 2°56.019 126.3 -999 20 -999
2011-08-01 06:19:40 51°13.636 2°56.019 126.4 -999 341 -999
2011-08-01 06:19:45 51°13.636 2°56.019 126.4 -999 39 -999
2011-08-01 06:19:50 51°13.636 2°56.018 126.4 -999 32 -999
2011-08-01 06:19:55 51°13.636 2°56.018 126.4 -999 234 -999
2011-08-01 06:20:00 51°13.636 2°56.018 126.4 -999 36 -999
2011-08-01 06:20:05 51°13.636 2°56.018 126.4 -999 227 -999
2011-08-01 06:20:11 51°13.636 2°56.018 126.4 -999 153 -999
2011-08-01 06:20:16 51°13.636 2°56.018 126.4 -999 61 -999
2011-08-01 06:20:21 51°13.636 2°56.018 126.4 -999 18 -999
2011-08-01 06:20:25 51°13.636 2°56.018 126.4 -999 346 -999
2011-08-01 06:20:31 51°13.636 2°56.018 126.4 -999 277 -999
2011-08-01 06:20:36 51°13.636 2°56.019 126.4 -999 64 -999
2011-08-01 06:20:41 51°13.636 2°56.018 126.5 -999 279 -999
2011-08-01 06:20:45 51°13.636 2°56.018 126.6 -999 221 -999
2011-08-01 06:20:51 51°13.636 2°56.018 126.6 -999 1 -999
2011-08-01 06:20:56 51°13.636 2°56.018 126.6 -999 77 -999
2011-08-01 06:21:01 51°13.636 2°56.018 126.6 -999 83 -999
2011-08-01 06:21:05 51°13.636 2°56.018 126.7 -999 56 -999
2011-08-01 06:21:11 51°13.635 2°56.018 126.7 -999 280 -999
2011-08-01 06:21:16 51°13.635 2°56.018 126.7 -999 252 -999
2011-08-01 06:21:21 51°13.635 2°56.018 126.7 -999 57 -999
2011-08-01 06:21:26 51°13.635 2°56.018 126.8 -999 290 -999
2011-08-01 06:21:31 51°13.635 2°56.018 126.8 -999 278 -999
2011-08-01 06:21:36 51°13.635 2°56.019 126.8 -999 67 -999
2011-08-01 06:21:41 51°13.635 2°56.019 126.8 -999 92 -999
2011-08-01 06:21:46 51°13.635 2°56.019 126.8 -999 173 -999
2011-08-01 06:21:51 51°13.635 2°56.019 126.8 -999 71 -999
2011-08-01 06:21:55 51°13.635 2°56.019 126.8 -999 51 -999
2011-08-01 06:22:00 51°13.635 2°56.019 126.8 -999 200 -999
2011-08-01 06:22:05 51°13.635 2°56.019 126.8 -999 72 -999
2011-08-01 06:22:10 51°13.635 2°56.019 126.9 -999 271 -999
2011-08-01 06:22:15 51°13.636 2°56.019 126.9 -999 284 -999
2011-08-01 06:22:20 51°13.636 2°56.019 126.9 -999 249 -999
2011-08-01 06:22:25 51°13.636 2°56.019 126.9 -999 86 -999
2011-08-01 06:22:30 51°13.636 2°56.019 126.9 -999 41 -999
2011-08-01 06:22:35 51°13.636 2°56.019 126.9 -999 286 -999
2011-08-01 06:22:40 51°13.636 2°56.019 126.9 -999 2 -999
2011-08-01 06:22:45 51°13.636 2°56.019 126.9 -999 61 -999
2011-08-01 06:22:50 51°13.636 2°56.019 126.9 -999 81 -999
2011-08-01 06:22:55 51°13.636 2°56.019 126.9 -999 76 -999
2011-08-01 06:23:00 51°13.636 2°56.019 126.9 -999 39 -999
2011-08-01 06:23:05 51°13.636 2°56.019 126.9 -999 179 -999
2011-08-01 06:23:11 51°13.636 2°56.019 126.9 -999 104 -999
2011-08-01 06:23:15 51°13.636 2°56.019 126.9 -999 254 -999
2011-08-01 06:23:21 51°13.636 2°56.019 126.9 -999 331 -999
2011-08-01 06:23:26 51°13.636 2°56.019 126.9 -999 56 -999
2011-08-01 06:23:30 51°13.636 2°56.019 126.9 -999 107 -999
2011-08-01 06:23:35 51°13.636 2°56.019 126.8 -999 33 -999
2011-08-01 06:23:41 51°13.636 2°56.019 126.8 -999 316 -999
2011-08-01 06:23:45 51°13.636 2°56.019 126.7 -999 339 -999
2011-08-01 06:23:50 51°13.636 2°56.019 126.7 -999 334 -999
2011-08-01 06:23:56 51°13.636 2°56.019 126.7 -999 306 -999
2011-08-01 06:24:00 51°13.636 2°56.019 126.8 -999 13 -999
2011-08-01 06:24:05 51°13.636 2°56.019 126.8 -999 312 -999
2011-08-01 06:24:10 51°13.636 2°56.019 126.7 -999 94 -999
2011-08-01 06:24:15 51°13.636 2°56.019 126.7 -999 17 -999
2011-08-01 06:24:20 51°13.636 2°56.019 126.7 -999 5 -999
2011-08-01 06:24:25 51°13.636 2°56.019 126.7 -999 274 -999
2011-08-01 06:24:30 51°13.636 2°56.019 126.6 -999 46 -999
2011-08-01 06:24:35 51°13.636 2°56.019 126.5 -999 58 -999
2011-08-01 06:24:40 51°13.636 2°56.019 126.4 -999 58 -999
2011-08-01 06:24:45 51°13.636 2°56.019 126.4 -999 44 -999
2011-08-01 06:24:51 51°13.636 2°56.019 126.4 -999 32 -999
2011-08-01 06:24:56 51°13.636 2°56.019 126.4 -999 39 -999
2011-08-01 06:25:01 51°13.636 2°56.019 126.4 -999 84 -999
2011-08-01 06:25:06 51°13.636 2°56.019 126.4 -999 125 -999
2011-08-01 06:25:11 51°13.636 2°56.019 126.5 -999 121 -999
2011-08-01 06:25:16 51°13.636 2°56.019 126.6 -999 110 -999
2011-08-01 06:25:21 51°13.636 2°56.019 126.8 -999 176 -999
2011-08-01 06:25:26 51°13.636 2°56.019 126.8 -999 85 -999
2011-08-01 06:25:31 51°13.636 2°56.019 126.9 -999 239 -999
2011-08-01 06:25:36 51°13.636 2°56.019 126.9 -999 258 -999
2011-08-01 06:25:41 51°13.636 2°56.019 126.9 -999 138 -999
2011-08-01 06:25:46 51°13.636 2°56.019 126.9 -999 182 -999
2011-08-01 06:25:51 51°13.636 2°56.019 126.9 -999 34 -999
2011-08-01 06:25:56 51°13.636 2°56.019 126.9 -999 27 -999
2011-08-01 06:26:00 51°13.636 2°56.019 127 -999 297 -999
2011-08-01 06:26:05 51°13.636 2°56.019 127 -999 300 -999
2011-08-01 06:26:10 51°13.636 2°56.019 127 -999 352 -999
2011-08-01 06:26:15 51°13.636 2°56.019 126.8 -999 94 -999
2011-08-01 06:26:21 51°13.636 2°56.019 126.6 -999 66 -999
2011-08-01 06:26:26 51°13.636 2°56.019 126.6 -999 47 -999
2011-08-01 06:26:31 51°13.636 2°56.018 126.6 -999 190 -999
2011-08-01 06:26:36 51°13.636 2°56.018 126.6 -999 36 -999
2011-08-01 06:26:41 51°13.636 2°56.018 126.6 -999 260 -999
2011-08-01 06:26:46 51°13.636 2°56.018 126.7 -999 78 -999
2011-08-01 06:26:50 51°13.636 2°56.018 126.7 -999 101 -999
2011-08-01 06:26:55 51°13.636 2°56.018 126.7 -999 80 -999
2011-08-01 06:27:00 51°13.636 2°56.018 126.7 -999 194 -999
2011-08-01 06:27:05 51°13.636 2°56.018 126.7 -999 37 -999
2011-08-01 06:27:10 51°13.636 2°56.018 126.7 -999 330 -999
2011-08-01 06:27:16 51°13.636 2°56.018 126.7 -999 130 -999
2011-08-01 06:27:20 51°13.636 2°56.018 126.8 -999 149 -999
2011-08-01 06:27:25 51°13.636 2°56.018 126.9 -999 242 -999
2011-08-01 06:27:30 51°13.636 2°56.018 127 -999 109 -999
2011-08-01 06:27:35 51°13.636 2°56.018 127 -999 21 -999
2011-08-01 06:27:41 51°13.636 2°56.019 127.1 -999 197 -999
2011-08-01 06:27:45 51°13.636 2°56.019 127.1 -999 41 -999
2011-08-01 06:27:50 51°13.636 2°56.019 127.1 -999 236 -999
2011-08-01 06:27:55 51°13.636 2°56.019 127.2 -999 344 -999
2011-08-01 06:28:00 51°13.636 2°56.019 127.2 -999 181 -999
2011-08-01 06:28:05 51°13.636 2°56.019 127.2 -999 134 -999
2011-08-01 06:28:10 51°13.636 2°56.019 127.2 -999 350 -999
2011-08-01 06:28:15 51°13.637 2°56.019 127.1 -999 343 -999
2011-08-01 06:28:20 51°13.637 2°56.019 126.9 -999 56 -999
2011-08-01 06:28:25 51°13.637 2°56.019 126.6 -999 108 -999
2011-08-01 06:28:30 51°13.637 2°56.019 126.5 -999 7 -999
2011-08-01 06:28:35 51°13.637 2°56.019 126.5 -999 253 -999
2011-08-01 06:28:40 51°13.637 2°56.019 126.6 -999 153 -999
2011-08-01 06:28:45 51°13.637 2°56.019 126.8 -999 134 -999
2011-08-01 06:28:50 51°13.637 2°56.019 127 -999 127 -999
2011-08-01 06:28:55 51°13.637 2°56.019 127.2 -999 103 -999
2011-08-01 06:29:00 51°13.637 2°56.019 127.3 -999 247 -999
2011-08-01 06:29:06 51°13.637 2°56.019 127.4 -999 115 -999
2011-08-01 06:29:11 51°13.637 2°56.019 127.4 -999 46 -999
2011-08-01 06:29:15 51°13.637 2°56.019 127.3 -999 38 -999
2011-08-01 06:29:20 51°13.637 2°56.019 127.2 -999 357 -999
2011-08-01 06:29:25 51°13.637 2°56.019 127.1 -999 336 -999
2011-08-01 06:29:30 51°13.637 2°56.019 127.1 -999 334 -999
2011-08-01 06:29:35 51°13.637 2°56.019 127.1 -999 26 -999
2011-08-01 06:29:40 51°13.637 2°56.019 127.1 -999 160 -999
2011-08-01 06:29:45 51°13.637 2°56.019 127.1 -999 119 -999
2011-08-01 06:29:50 51°13.637 2°56.019 127.1 -999 168 -999
2011-08-01 06:29:55 51°13.637 2°56.019 127.2 -999 140 -999
2011-08-01 06:30:00 51°13.637 2°56.019 127.4 -999 249 -999
2011-08-01 06:30:05 51°13.637 2°56.018 127.4 -999 250 -999
2011-08-01 06:30:10 51°13.637 2°56.018 127.4 -999 318 -999
2011-08-01 06:30:15 51°13.637 2°56.018 127.4 -999 29 -999
2011-08-01 06:30:20 51°13.637 2°56.018 127.2 -999 8 -999
2011-08-01 06:30:25 51°13.637 2°56.018 127.1 -999 268 -999
2011-08-01 06:30:31 51°13.637 2°56.018 126.9 -999 12 -999
2011-08-01 06:30:36 51°13.637 2°56.018 126.6 -999 14 -999
2011-08-01 06:30:41 51°13.637 2°56.018 126.5 -999 -999 -999
2011-08-01 06:30:46 51°13.637 2°56.018 126.4 -999 237 -999
2011-08-01 06:30:51 51°13.637 2°56.018 126.4 -999 286 -999
2011-08-01 06:30:56 51°13.637 2°56.018 126.4 -999 82 -999
2011-08-01 06:31:00 51°13.637 2°56.018 126.4 -999 78 -999
2011-08-01 06:31:05 51°13.637 2°56.018 126.6 -999 166 -999
2011-08-01 06:31:10 51°13.637 2°56.018 126.9 -999 149 -999
2011-08-01 06:31:16 51°13.637 2°56.018 127.1 -999 127 -999
2011-08-01 06:31:21 51°13.637 2°56.018 127.3 -999 118 -999
2011-08-01 06:31:26 51°13.637 2°56.018 127.4 -999 197 -999
2011-08-01 06:31:31 51°13.637 2°56.018 127.5 -999 276 -999
2011-08-01 06:31:36 51°13.637 2°56.018 127.5 -999 132 -999
2011-08-01 06:31:41 51°13.637 2°56.018 127.4 -999 76 -999
2011-08-01 06:31:46 51°13.637 2°56.018 127.3 -999 334 -999
2011-08-01 06:31:51 51°13.637 2°56.018 127.2 -999 307 -999
2011-08-01 06:31:56 51°13.637 2°56.018 127.1 -999 7 -999
2011-08-01 06:32:00 51°13.637 2°56.018 127 -999 87 -999
2011-08-01 06:32:05 51°13.637 2°56.018 127 -999 335 -999
2011-08-01 06:32:10 51°13.637 2°56.018 126.9 -999 308 -999
2011-08-01 06:32:15 51°13.637 2°56.018 126.9 -999 210 -999
2011-08-01 06:32:20 51°13.637 2°56.018 126.9 -999 57 -999
2011-08-01 06:32:25 51°13.637 2°56.017 126.9 -999 296 -999
2011-08-01 06:32:30 51°13.637 2°56.017 126.9 -999 148 -999
2011-08-01 06:32:35 51°13.637 2°56.017 126.9 -999 98 -999
2011-08-01 06:32:40 51°13.637 2°56.017 127 -999 191 -999
2011-08-01 06:32:46 51°13.637 2°56.017 127.1 -999 172 -999
2011-08-01 06:32:51 51°13.637 2°56.017 127.1 -999 61 -999
2011-08-01 06:32:55 51°13.637 2°56.017 127.1 -999 181 -999
2011-08-01 06:33:01 51°13.637 2°56.018 127.1 -999 108 -999
2011-08-01 06:33:06 51°13.637 2°56.018 127.1 -999 136 -999
2011-08-01 06:33:10 51°13.637 2°56.018 127.2 -999 257 -999
2011-08-01 06:33:15 51°13.636 2°56.018 127.2 -999 275 -999
2011-08-01 06:33:20 51°13.636 2°56.018 127.3 -999 118 -999
2011-08-01 06:33:25 51°13.636 2°56.018 127.3 -999 50 -999
2011-08-01 06:33:30 51°13.636 2°56.018 127.3 -999 286 -999
2011-08-01 06:33:35 51°13.636 2°56.018 127.4 -999 14 -999
2011-08-01 06:33:40 51°13.636 2°56.018 127.4 -999 220 -999
2011-08-01 06:33:45 51°13.636 2°56.018 127.4 -999 54 -999
2011-08-01 06:33:50 51°13.636 2°56.018 127.4 -999 312 -999
2011-08-01 06:33:55 51°13.636 2°56.018 127.4 -999 339 -999
2011-08-01 06:34:01 51°13.636 2°56.018 127.4 -999 258 -999
2011-08-01 06:34:06 51°13.636 2°56.018 127.5 -999 152 -999
2011-08-01 06:34:11 51°13.637 2°56.018 127.5 -999 338 -999
2011-08-01 06:34:15 51°13.637 2°56.018 127.5 -999 323 -999
2011-08-01 06:34:21 51°13.637 2°56.018 127.4 -999 263 6.1
2011-08-01 06:34:25 51°13.637 2°56.018 127.4 -999 11 6.1
2011-08-01 06:34:30 51°13.637 2°56.018 127.4 -999 12 6.1
2011-08-01 06:34:34 51°13.637 2°56.018 127.4 -999 152 6.1
2011-08-01 06:34:40 51°13.637 2°56.018 127.4 -999 51 6.1
2011-08-01 06:34:45 51°13.637 2°56.018 127.4 -999 302 6.1
2011-08-01 06:34:49 51°13.637 2°56.018 127.3 -999 251 6
2011-08-01 06:34:54 51°13.637 2°56.018 127.3 -999 192 6.1
2011-08-01 06:34:59 51°13.637 2°56.018 127.3 -999 129 6
2011-08-01 06:35:04 51°13.637 2°56.018 127.3 -999 348 6.1
2011-08-01 06:35:09 51°13.637 2°56.018 127.3 -999 46 6.1
2011-08-01 06:35:14 51°13.637 2°56.018 127.3 -999 142 6
2011-08-01 06:35:18 51°13.637 2°56.018 127.3 -999 46 6
2011-08-01 06:35:23 51°13.637 2°56.018 127.3 -999 333 6
2011-08-01 06:35:28 51°13.637 2°56.018 127.3 -999 317 6
2011-08-01 06:35:33 51°13.637 2°56.018 127.3 -999 123 6
2011-08-01 06:35:38 51°13.637 2°56.018 127.3 -999 75 6
2011-08-01 06:35:43 51°13.637 2°56.017 127.3 -999 53 6
2011-08-01 06:35:48 51°13.637 2°56.017 127.2 -999 227 6
2011-08-01 06:35:53 51°13.637 2°56.017 127.2 -999 247 6
2011-08-01 06:35:58 51°13.637 2°56.017 127.2 -999 4 6
2011-08-01 06:36:03 51°13.637 2°56.017 127.2 -999 6 6
2011-08-01 06:36:07 51°13.637 2°56.017 127.2 -999 236 6
2011-08-01 06:36:13 51°13.637 2°56.017 127.2 -999 115 6
2011-08-01 06:36:18 51°13.637 2°56.017 127.2 -999 344 5.9
2011-08-01 06:36:23 51°13.637 2°56.017 127.2 -999 26 6
2011-08-01 06:36:27 51°13.637 2°56.017 127.2 -999 74 6
2011-08-01 06:36:32 51°13.637 2°56.017 127.2 -999 240 6
2011-08-01 06:36:37 51°13.637 2°56.017 127.2 -999 221 6
2011-08-01 06:36:42 51°13.637 2°56.017 127.2 -999 58 6
2011-08-01 06:36:47 51°13.637 2°56.017 127.1 -999 101 6
2011-08-01 06:36:52 51°13.637 2°56.017 127.1 -999 235 6
2011-08-01 06:36:56 51°13.637 2°56.017 127.1 -999 218 6
2011-08-01 06:37:03 51°13.637 2°56.017 127.1 -999 177 6
2011-08-01 06:37:08 51°13.637 2°56.017 127.1 -999 136 6
2011-08-01 06:37:12 51°13.637 2°56.017 127.1 -999 48 6
2011-08-01 06:37:17 51°13.637 2°56.017 127.1 -999 10 6
2011-08-01 06:37:22 51°13.637 2°56.017 127.1 -999 65 6
2011-08-01 06:37:27 51°13.637 2°56.017 127.1 -999 106 6
2011-08-01 06:37:32 51°13.637 2°56.017 127.1 -999 11 6
2011-08-01 06:37:37 51°13.637 2°56.017 127.1 -999 248 6
2011-08-01 06:37:42 51°13.637 2°56.017 127.1 -999 299 6
2011-08-01 06:37:47 51°13.637 2°56.017 127.1 -999 288 6
2011-08-01 06:37:52 51°13.637 2°56.017 127.1 -999 -999 6
2011-08-01 06:37:57 51°13.637 2°56.017 127.1 -999 349 6
2011-08-01 06:38:02 51°13.637 2°56.017 127.1 -999 180 6
2011-08-01 06:38:07 51°13.637 2°56.017 127.1 -999 247 6
2011-08-01 06:38:12 51°13.637 2°56.017 127.1 -999 246 6
2011-08-01 06:38:17 51°13.637 2°56.017 127.1 -999 118 6
2011-08-01 06:38:22 51°13.637 2°56.017 127.1 -999 27 6
2011-08-01 06:38:27 51°13.637 2°56.017 127.1 -999 331 6
2011-08-01 06:38:32 51°13.638 2°56.017 127.1 -999 19 6
2011-08-01 06:38:37 51°13.637 2°56.017 127.1 -999 129 6
2011-08-01 06:38:42 51°13.637 2°56.017 127.1 -999 40 6
2011-08-01 06:38:47 51°13.637 2°56.017 127.1 -999 66 6
2011-08-01 06:38:52 51°13.637 2°56.017 127.1 -999 354 6
2011-08-01 06:38:56 51°13.637 2°56.017 127.1 -999 63 6
2011-08-01 06:39:02 51°13.637 2°56.017 127.1 -999 316 6
2011-08-01 06:39:08 51°13.637 2°56.017 127.1 -999 220 6
2011-08-01 06:39:13 51°13.638 2°56.017 127.1 -999 59 6
2011-08-01 06:39:17 51°13.638 2°56.017 127.1 -999 55 6
2011-08-01 06:39:22 51°13.638 2°56.017 127.1 -999 12 6
2011-08-01 06:39:27 51°13.637 2°56.017 127.1 -999 92 6
2011-08-01 06:39:32 51°13.637 2°56.017 127.1 -999 348 6
2011-08-01 06:39:37 51°13.637 2°56.017 127.1 -999 110 6
2011-08-01 06:39:42 51°13.637 2°56.017 127.1 -999 107 6
2011-08-01 06:39:47 51°13.637 2°56.017 127.1 -999 7 6
2011-08-01 06:39:52 51°13.637 2°56.017 127.1 -999 10 6
2011-08-01 06:39:57 51°13.637 2°56.017 127.1 -999 133 6
2011-08-01 06:40:02 51°13.637 2°56.017 127.1 -999 244 6
2011-08-01 06:40:07 51°13.637 2°56.017 127.1 -999 83 6
2011-08-01 06:40:12 51°13.637 2°56.017 127.1 -999 62 6
2011-08-01 06:40:17 51°13.637 2°56.017 127.1 -999 2 6
2011-08-01 06:40:22 51°13.637 2°56.017 127.1 -999 137 6
2011-08-01 06:40:27 51°13.637 2°56.017 127.1 -999 232 6
2011-08-01 06:40:32 51°13.637 2°56.017 127.1 -999 358 6
2011-08-01 06:40:37 51°13.637 2°56.017 127.1 -999 219 6
2011-08-01 06:40:42 51°13.637 2°56.017 127.1 -999 203 6
2011-08-01 06:40:47 51°13.638 2°56.017 127.1 -999 172 6
2011-08-01 06:40:52 51°13.638 2°56.017 127.1 -999 88 5.9
2011-08-01 06:40:57 51°13.638 2°56.017 127.1 -999 26 5.9
2011-08-01 06:41:02 51°13.638 2°56.017 127.1 -999 241 6
2011-08-01 06:41:07 51°13.638 2°56.017 127.2 -999 331 6
2011-08-01 06:41:12 51°13.638 2°56.017 127.2 -999 8 6
2011-08-01 06:41:17 51°13.638 2°56.017 127.2 -999 198 6
2011-08-01 06:41:22 51°13.638 2°56.017 127.2 -999 132 6
2011-08-01 06:41:26 51°13.638 2°56.018 127.2 -999 151 5.9
2011-08-01 06:41:32 51°13.637 2°56.018 127.2 -999 12 6
2011-08-01 06:41:37 51°13.637 2°56.018 127.2 -999 136 6
2011-08-01 06:41:42 51°13.638 2°56.018 127.2 -999 292 5.9
2011-08-01 06:41:46 51°13.638 2°56.018 127.3 -999 232 6
2011-08-01 06:41:52 51°13.638 2°56.018 127.3 -999 19 6
2011-08-01 06:41:57 51°13.638 2°56.018 127.3 -999 298 6
2011-08-01 06:42:02 51°13.638 2°56.018 127.3 -999 42 6
2011-08-01 06:42:06 51°13.637 2°56.018 127.3 -999 221 5.9
2011-08-01 06:42:11 51°13.637 2°56.018 127.2 -999 20 5.9
2011-08-01 06:42:17 51°13.637 2°56.018 127.2 -999 215 5.9
2011-08-01 06:42:22 51°13.637 2°56.018 127.2 -999 57 5.9
2011-08-01 06:42:27 51°13.637 2°56.018 127.2 -999 225 6
2011-08-01 06:42:32 51°13.637 2°56.017 127.2 -999 324 5.9
2011-08-01 06:42:37 51°13.637 2°56.017 127.2 -999 66 6
2011-08-01 06:42:42 51°13.637 2°56.017 127.2 -999 28 6
2011-08-01 06:42:47 51°13.637 2°56.017 127.2 -999 33 5.9
2011-08-01 06:42:52 51°13.637 2°56.017 127.2 -999 8 5.9
2011-08-01 06:42:57 51°13.637 2°56.017 127.2 -999 229 5.9
2011-08-01 06:43:02 51°13.637 2°56.017 127.1 -999 5 6
2011-08-01 06:43:08 51°13.637 2°56.017 127.1 -999 72 6
2011-08-01 06:43:12 51°13.637 2°56.017 127.1 -999 23 5.9
2011-08-01 06:43:17 51°13.637 2°56.017 127.1 -999 221 5.9
2011-08-01 06:43:22 51°13.637 2°56.017 127.1 -999 247 6
2011-08-01 06:43:28 51°13.637 2°56.017 127.1 -999 344 6
2011-08-01 06:43:32 51°13.637 2°56.017 127.1 -999 150 5.9
2011-08-01 06:43:37 51°13.637 2°56.017 127.1 -999 35 6
2011-08-01 06:43:42 51°13.637 2°56.017 127.1 -999 252 6
2011-08-01 06:43:47 51°13.637 2°56.017 127.1 -999 79 6
2011-08-01 06:43:52 51°13.637 2°56.017 127.1 -999 32 6
2011-08-01 06:43:57 51°13.637 2°56.017 127.1 -999 351 6
2011-08-01 06:44:02 51°13.637 2°56.017 127.1 -999 31 5.9
2011-08-01 06:44:07 51°13.637 2°56.017 127.1 -999 304 6
2011-08-01 06:44:12 51°13.637 2°56.017 127 -999 152 6
2011-08-01 06:44:16 51°13.637 2°56.017 127 -999 40 6
2011-08-01 06:44:22 51°13.637 2°56.017 127 -999 331 5.9
2011-08-01 06:44:27 51°13.636 2°56.017 127 -999 266 5.9
2011-08-01 06:44:32 51°13.636 2°56.017 126.9 -999 149 5.9
2011-08-01 06:44:36 51°13.636 2°56.017 126.9 -999 78 5.9
2011-08-01 06:44:42 51°13.636 2°56.017 126.9 -999 92 5.9
2011-08-01 06:44:47 51°13.636 2°56.017 126.9 -999 151 5.9
2011-08-01 06:44:52 51°13.636 2°56.017 127 -999 117 5.9
2011-08-01 06:44:57 51°13.637 2°56.017 127 -999 11 5.9
2011-08-01 06:45:02 51°13.637 2°56.017 127 -999 226 6
2011-08-01 06:45:07 51°13.637 2°56.017 127 -999 196 5.9
2011-08-01 06:45:13 51°13.637 2°56.017 127.1 -999 18 5.9
2011-08-01 06:45:17 51°13.637 2°56.017 127.1 -999 20 5.9
2011-08-01 06:45:22 51°13.637 2°56.017 127.1 -999 205 5.9
2011-08-01 06:45:27 51°13.637 2°56.017 127.1 -999 40 5.9
2011-08-01 06:45:32 51°13.637 2°56.017 127.1 -999 196 5.9
2011-08-01 06:45:37 51°13.637 2°56.017 127.1 -999 182 5.9
2011-08-01 06:45:42 51°13.637 2°56.017 127.1 -999 154 5.9
2011-08-01 06:45:47 51°13.637 2°56.017 127.1 -999 185 6
2011-08-01 06:45:53 51°13.637 2°56.017 127.1 -999 174 6
2011-08-01 06:45:57 51°13.637 2°56.017 127.1 -999 192 6
2011-08-01 06:46:02 51°13.637 2°56.017 127.1 -999 183 6
2011-08-01 06:46:07 51°13.637 2°56.017 127.1 -999 149 6
2011-08-01 06:46:12 51°13.637 2°56.017 127.1 -999 77 6
2011-08-01 06:46:17 51°13.637 2°56.017 127.1 -999 123 6
2011-08-01 06:46:22 51°13.637 2°56.017 127.1 -999 197 5.9
2011-08-01 06:46:27 51°13.637 2°56.017 127.1 -999 181 5.9
2011-08-01 06:46:32 51°13.637 2°56.017 127.1 -999 15 5.9
2011-08-01 06:46:37 51°13.637 2°56.017 127.1 -999 205 5.9
2011-08-01 06:46:42 51°13.637 2°56.017 127.1 -999 182 5.9
2011-08-01 06:46:47 51°13.637 2°56.017 127 -999 38 5.9
2011-08-01 06:46:52 51°13.637 2°56.018 127 -999 56 5.9
2011-08-01 06:46:57 51°13.637 2°56.018 127 -999 355 5.9
2011-08-01 06:47:02 51°13.637 2°56.018 127 -999 182 5.9
2011-08-01 06:47:07 51°13.637 2°56.018 127 -999 180 5.9
2011-08-01 06:47:12 51°13.637 2°56.018 127 -999 106 5.9
2011-08-01 06:47:17 51°13.637 2°56.018 127 -999 197 5.9
2011-08-01 06:47:22 51°13.637 2°56.018 127 -999 80 6
2011-08-01 06:47:26 51°13.637 2°56.018 127 -999 149 6
2011-08-01 06:47:32 51°13.637 2°56.018 127 -999 108 5.9
2011-08-01 06:47:37 51°13.637 2°56.018 127 -999 152 5.9
2011-08-01 06:47:42 51°13.637 2°56.018 127 -999 34 5.9
2011-08-01 06:47:47 51°13.637 2°56.018 127 -999 74 5.9
2011-08-01 06:47:51 51°13.637 2°56.018 127 -999 164 5.9
2011-08-01 06:47:57 51°13.637 2°56.018 127 -999 193 6
2011-08-01 06:48:02 51°13.637 2°56.018 127 -999 101 5.9
2011-08-01 06:48:07 51°13.637 2°56.018 127 -999 144 5.9
2011-08-01 06:48:12 51°13.637 2°56.018 127 -999 67 5.9
2011-08-01 06:48:17 51°13.637 2°56.018 126.9 -999 32 5.9
2011-08-01 06:48:22 51°13.637 2°56.018 126.9 -999 199 5.9
2011-08-01 06:48:27 51°13.637 2°56.018 126.9 -999 142 6
2011-08-01 06:48:32 51°13.637 2°56.018 126.9 -999 38 6
2011-08-01 06:48:37 51°13.637 2°56.018 126.9 -999 146 5.9
2011-08-01 06:48:42 51°13.637 2°56.018 126.9 -999 194 5.9
2011-08-01 06:48:47 51°13.637 2°56.018 126.9 -999 182 5.9
2011-08-01 06:48:52 51°13.637 2°56.018 126.9 -999 210 6
2011-08-01 06:48:56 51°13.637 2°56.018 126.9 -999 161 6
2011-08-01 06:49:02 51°13.637 2°56.018 126.9 -999 167 5.9
2011-08-01 06:49:07 51°13.637 2°56.018 126.9 -999 194 5.9
2011-08-01 06:49:12 51°13.637 2°56.018 126.9 -999 184 5.9
2011-08-01 06:49:17 51°13.637 2°56.018 126.9 -999 173 5.9
2011-08-01 06:49:22 51°13.637 2°56.018 126.9 -999 181 5.9
2011-08-01 06:49:28 51°13.637 2°56.018 126.9 -999 200 5.9
2011-08-01 06:49:32 51°13.637 2°56.019 126.9 -999 188 6
2011-08-01 06:49:37 51°13.637 2°56.019 126.9 -999 162 5.9
2011-08-01 06:49:42 51°13.637 2°56.019 126.9 -999 160 6
2011-08-01 06:49:47 51°13.637 2°56.019 126.9 -999 236 5.9
2011-08-01 06:49:52 51°13.637 2°56.019 126.9 -999 202 5.9
2011-08-01 06:49:57 51°13.637 2°56.019 126.9 -999 178 6
2011-08-01 06:50:02 51°13.637 2°56.019 126.9 -999 182 5.9
2011-08-01 06:50:07 51°13.637 2°56.019 126.9 -999 138 5.9
2011-08-01 06:50:12 51°13.637 2°56.019 126.9 -999 51 5.9
2011-08-01 06:50:17 51°13.637 2°56.019 126.9 -999 214 5.9
2011-08-01 06:50:22 51°13.637 2°56.019 126.9 -999 183 5.9
2011-08-01 06:50:27 51°13.637 2°56.019 126.9 -999 230 5.9
2011-08-01 06:50:32 51°13.637 2°56.019 126.9 -999 180 5.9
2011-08-01 06:50:36 51°13.637 2°56.019 126.9 -999 181 5.9
2011-08-01 06:50:42 51°13.637 2°56.019 126.9 -999 202 5.9
2011-08-01 06:50:47 51°13.637 2°56.019 126.9 -999 200 5.9
2011-08-01 06:50:52 51°13.637 2°56.019 126.9 -999 184 5.9
2011-08-01 06:50:56 51°13.637 2°56.018 126.8 -999 350 5.9
2011-08-01 06:51:02 51°13.637 2°56.018 126.7 -999 46 5.9
2011-08-01 06:51:07 51°13.637 2°56.018 126.7 -999 39 5.9
2011-08-01 06:51:12 51°13.637 2°56.018 126.7 -999 150 5.9
2011-08-01 06:51:16 51°13.637 2°56.018 126.7 -999 58 5.9
2011-08-01 06:51:22 51°13.637 2°56.018 126.7 -999 137 5.9
2011-08-01 06:51:27 51°13.637 2°56.018 126.7 -999 153 5.9
2011-08-01 06:51:32 51°13.637 2°56.018 126.7 -999 210 5.9
2011-08-01 06:51:36 51°13.637 2°56.018 126.8 -999 198 5.9
2011-08-01 06:51:42 51°13.637 2°56.018 126.8 -999 205 5.9
2011-08-01 06:51:47 51°13.637 2°56.018 126.8 -999 197 5.9
2011-08-01 06:51:52 51°13.637 2°56.018 126.8 -999 37 5.9
2011-08-01 06:51:57 51°13.637 2°56.018 126.8 -999 166 5.9
2011-08-01 06:52:02 51°13.637 2°56.018 126.8 -999 191 5.9
2011-08-01 06:52:07 51°13.637 2°56.018 126.8 -999 64 5.9
2011-08-01 06:52:12 51°13.637 2°56.018 126.8 -999 196 5.9
2011-08-01 06:52:17 51°13.637 2°56.018 126.7 -999 105 5.9
2011-08-01 06:52:21 51°13.637 2°56.018 126.7 -999 71 5.9
2011-08-01 06:52:27 51°13.637 2°56.018 126.7 -999 204 5.9
2011-08-01 06:52:32 51°13.637 2°56.018 126.7 -999 34 5.9
2011-08-01 06:52:37 51°13.637 2°56.018 126.7 -999 231 5.9
2011-08-01 06:52:42 51°13.637 2°56.018 126.7 -999 157 5.9
2011-08-01 06:52:47 51°13.637 2°56.018 126.7 -999 193 5.9
2011-08-01 06:52:52 51°13.637 2°56.018 126.7 -999 206 5.9
2011-08-01 06:52:57 51°13.637 2°56.018 126.7 -999 186 5.9
2011-08-01 06:53:02 51°13.637 2°56.018 126.7 -999 119 5.9
2011-08-01 06:53:07 51°13.637 2°56.018 126.7 -999 182 5.9
2011-08-01 06:53:12 51°13.637 2°56.018 126.7 -999 189 5.9
2011-08-01 06:53:17 51°13.637 2°56.018 126.7 -999 197 5.9
2011-08-01 06:53:21 51°13.637 2°56.018 126.7 -999 192 5.9
2011-08-01 06:53:27 51°13.637 2°56.018 126.7 -999 153 5.9
2011-08-01 06:53:33 51°13.637 2°56.018 126.7 -999 93 5.9
2011-08-01 06:53:38 51°13.637 2°56.018 126.7 -999 71 5.9
2011-08-01 06:53:42 51°13.637 2°56.018 126.7 -999 95 5.9
2011-08-01 06:53:47 51°13.637 2°56.018 126.7 -999 186 5.9
2011-08-01 06:53:52 51°13.637 2°56.018 126.7 -999 203 5.9
2011-08-01 06:53:57 51°13.637 2°56.018 126.7 -999 221 5.9
2011-08-01 06:54:02 51°13.637 2°56.018 126.7 -999 129 5.9
2011-08-01 06:54:07 51°13.637 2°56.018 126.7 -999 77 5.9
2011-08-01 06:54:12 51°13.637 2°56.018 126.7 -999 201 5.9
2011-08-01 06:54:17 51°13.637 2°56.018 126.6 -999 193 5.9
2011-08-01 06:54:22 51°13.637 2°56.018 126.6 -999 135 5.9
2011-08-01 06:54:26 51°13.637 2°56.018 126.6 -999 42 5.9
2011-08-01 06:54:32 51°13.637 2°56.018 126.6 -999 48 5.9
2011-08-01 06:54:37 51°13.637 2°56.018 126.6 -999 203 5.9
2011-08-01 06:54:42 51°13.637 2°56.018 126.6 -999 195 5.9
2011-08-01 06:54:46 51°13.637 2°56.018 126.6 -999 313 5.9
2011-08-01 06:54:52 51°13.637 2°56.018 126.6 -999 189 5.9
2011-08-01 06:54:57 51°13.637 2°56.018 126.6 -999 122 5.9
2011-08-01 06:55:02 51°13.637 2°56.018 126.6 -999 131 5.9
2011-08-01 06:55:07 51°13.637 2°56.017 126.6 -999 101 5.9
2011-08-01 06:55:11 51°13.637 2°56.017 126.6 -999 199 5.9
2011-08-01 06:55:17 51°13.637 2°56.017 126.6 -999 207 5.8
2011-08-01 06:55:22 51°13.636 2°56.017 126.6 -999 96 5.9
2011-08-01 06:55:27 51°13.636 2°56.017 126.6 -999 81 5.9
2011-08-01 06:55:31 51°13.636 2°56.017 126.6 -999 34 5.8
2011-08-01 06:55:37 51°13.636 2°56.017 126.6 -999 87 5.9
2011-08-01 06:55:43 51°13.636 2°56.017 126.6 -999 189 5.9
2011-08-01 06:55:47 51°13.636 2°56.017 126.6 -999 45 5.9
2011-08-01 06:55:52 51°13.636 2°56.017 126.5 -999 156 5.9
2011-08-01 06:55:57 51°13.636 2°56.017 126.5 -999 131 5.9
2011-08-01 06:56:02 51°13.636 2°56.017 126.5 -999 187 5.9
2011-08-01 06:56:07 51°13.636 2°56.016 126.5 -999 204 5.8
2011-08-01 06:56:12 51°13.636 2°56.016 126.5 -999 177 5.8
2011-08-01 06:56:16 51°13.636 2°56.016 126.5 -999 189 5.8
2011-08-01 06:56:22 51°13.636 2°56.016 126.5 -999 167 5.8
2011-08-01 06:56:27 51°13.636 2°56.016 126.5 -999 138 5.8
2011-08-01 06:56:32 51°13.636 2°56.016 126.5 -999 121 5.8
2011-08-01 06:56:37 51°13.636 2°56.016 126.5 -999 159 5.9
2011-08-01 06:56:42 51°13.636 2°56.016 126.5 -999 186 5.9
2011-08-01 06:56:47 51°13.636 2°56.017 126.5 -999 46 5.9
2011-08-01 06:56:52 51°13.636 2°56.016 126.5 -999 83 5.9
2011-08-01 06:56:57 51°13.636 2°56.016 126.5 -999 183 5.9
2011-08-01 06:57:02 51°13.636 2°56.016 126.5 -999 194 5.9
2011-08-01 06:57:07 51°13.636 2°56.016 126.6 -999 199 5.9
2011-08-01 06:57:12 51°13.636 2°56.016 126.6 -999 198 5.9
2011-08-01 06:57:17 51°13.636 2°56.016 126.6 -999 191 5.9
2011-08-01 06:57:22 51°13.636 2°56.016 126.6 -999 192 5.9
2011-08-01 06:57:27 51°13.636 2°56.016 126.6 -999 190 5.9
2011-08-01 06:57:32 51°13.636 2°56.016 126.6 -999 181 5.9
2011-08-01 06:57:36 51°13.637 2°56.016 126.6 -999 196 5.9
2011-08-01 06:57:42 51°13.637 2°56.016 126.6 -999 207 5.9
2011-08-01 06:57:47 51°13.637 2°56.016 126.5 -999 34 5.9
2011-08-01 06:57:52 51°13.637 2°56.016 126.5 -999 177 5.9
2011-08-01 06:57:56 51°13.637 2°56.016 126.5 -999 53 5.9
2011-08-01 06:58:02 51°13.637 2°56.016 126.5 -999 157 5.8
2011-08-01 06:58:07 51°13.637 2°56.016 126.5 -999 72 5.8
2011-08-01 06:58:12 51°13.637 2°56.016 126.5 -999 38 5.8
2011-08-01 06:58:16 51°13.637 2°56.016 126.5 -999 184 5.8
2011-08-01 06:58:21 51°13.637 2°56.016 126.5 -999 200 5.8
2011-08-01 06:58:26 51°13.637 2°56.016 126.5 -999 199 5.8
2011-08-01 06:58:33 51°13.637 2°56.016 126.5 -999 183 5.8
2011-08-01 06:58:37 51°13.637 2°56.016 126.5 -999 105 5.8
2011-08-01 06:58:42 51°13.637 2°56.016 126.5 -999 258 5.8
2011-08-01 06:58:47 51°13.637 2°56.016 126.5 -999 235 5.8
2011-08-01 06:58:53 51°13.637 2°56.016 126.5 -999 174 5.8
2011-08-01 06:58:57 51°13.637 2°56.016 126.5 -999 43 5.8
2011-08-01 06:59:02 51°13.637 2°56.016 126.5 -999 46 5.8
2011-08-01 06:59:07 51°13.637 2°56.016 126.5 -999 171 5.8
2011-08-01 06:59:12 51°13.637 2°56.016 126.5 -999 87 5.8
2011-08-01 06:59:17 51°13.637 2°56.016 126.5 -999 188 5.8
2011-08-01 06:59:21 51°13.637 2°56.016 126.5 -999 189 5.9
2011-08-01 06:59:27 51°13.637 2°56.016 126.5 -999 79 5.9
2011-08-01 06:59:32 51°13.637 2°56.016 126.5 -999 183 5.9
2011-08-01 06:59:37 51°13.637 2°56.016 126.5 -999 187 5.9
2011-08-01 06:59:42 51°13.637 2°56.016 126.5 -999 216 5.9
2011-08-01 06:59:47 51°13.637 2°56.017 126.5 -999 198 5.8
2011-08-01 06:59:52 51°13.637 2°56.017 126.5 -999 192 5.8
2011-08-01 06:59:57 51°13.637 2°56.017 126.4 -999 172 5.8
2011-08-01 07:00:02 51°13.637 2°56.017 126.4 -999 42 5.8
2011-08-01 07:00:07 51°13.637 2°56.017 126.4 -999 177 5.8
2011-08-01 07:00:12 51°13.637 2°56.017 126.4 -999 206 5.8
2011-08-01 07:00:17 51°13.637 2°56.017 126.4 -999 200 5.8
2011-08-01 07:00:21 51°13.637 2°56.017 126.4 -999 163 5.8
2011-08-01 07:00:26 51°13.637 2°56.017 126.4 -999 39 5.8
2011-08-01 07:00:32 51°13.637 2°56.017 126.4 -999 212 5.8
2011-08-01 07:00:37 51°13.637 2°56.017 126.4 -999 98 5.8
2011-08-01 07:00:42 51°13.637 2°56.017 126.4 -999 18 5.8
2011-08-01 07:00:47 51°13.637 2°56.017 126.4 -999 198 5.8
2011-08-01 07:00:52 51°13.637 2°56.017 126.4 -999 205 5.8
2011-08-01 07:00:57 51°13.637 2°56.017 126.4 -999 186 5.8
2011-08-01 07:01:02 51°13.637 2°56.017 126.4 -999 190 5.8
2011-08-01 07:01:07 51°13.637 2°56.017 126.4 -999 156 5.8
2011-08-01 07:01:12 51°13.637 2°56.017 126.4 -999 322 5.8
2011-08-01 07:01:17 51°13.637 2°56.017 126.4 -999 186 5.8
2011-08-01 07:01:22 51°13.637 2°56.017 126.4 -999 181 5.8
2011-08-01 07:01:27 51°13.637 2°56.017 126.4 -999 182 5.8
2011-08-01 07:01:32 51°13.637 2°56.017 126.3 -999 181 5.8
2011-08-01 07:01:37 51°13.637 2°56.017 126.3 -999 139 5.8
2011-08-01 07:01:42 51°13.637 2°56.017 126.3 -999 25 5.8
2011-08-01 07:01:46 51°13.637 2°56.017 126.3 -999 174 5.8
2011-08-01 07:01:52 51°13.636 2°56.017 126.3 -999 67 5.8
2011-08-01 07:01:57 51°13.636 2°56.017 126.3 -999 55 5.8
2011-08-01 07:02:02 51°13.636 2°56.017 126.3 -999 52 5.8
2011-08-01 07:02:06 51°13.636 2°56.017 126.3 -999 185 5.8
2011-08-01 07:02:12 51°13.637 2°56.017 126.3 -999 27 5.8
2011-08-01 07:02:17 51°13.637 2°56.017 126.3 -999 325 5.8
2011-08-01 07:02:22 51°13.637 2°56.017 126.3 -999 150 5.8
2011-08-01 07:02:26 51°13.637 2°56.017 126.3 -999 173 5.8
2011-08-01 07:02:33 51°13.637 2°56.017 126.3 -999 207 5.8
2011-08-01 07:02:38 51°13.637 2°56.018 126.3 -999 197 5.8
2011-08-01 07:02:42 51°13.637 2°56.018 126.3 -999 21 5.8
2011-08-01 07:02:47 51°13.637 2°56.018 126.3 -999 190 5.8
2011-08-01 07:02:52 51°13.637 2°56.018 126.3 -999 44 5.8
2011-08-01 07:02:57 51°13.637 2°56.018 126.3 -999 168 5.8
2011-08-01 07:03:02 51°13.637 2°56.018 126.3 -999 210 5.8
2011-08-01 07:03:07 51°13.637 2°56.018 126.3 -999 58 5.8
2011-08-01 07:03:11 51°13.637 2°56.018 126.3 -999 43 5.8
2011-08-01 07:03:17 51°13.637 2°56.018 126.3 -999 336 5.8
2011-08-01 07:03:22 51°13.637 2°56.018 126.3 -999 196 5.8
2011-08-01 07:03:27 51°13.637 2°56.018 126.3 -999 15 5.8
2011-08-01 07:03:32 51°13.637 2°56.018 126.3 -999 157 5.8
2011-08-01 07:03:36 51°13.637 2°56.018 126.3 -999 109 5.8
2011-08-01 07:03:42 51°13.637 2°56.018 126.3 -999 163 5.8
2011-08-01 07:03:47 51°13.637 2°56.018 126.3 -999 152 5.8
2011-08-01 07:03:52 51°13.637 2°56.018 126.3 -999 32 5.8
2011-08-01 07:03:56 51°13.637 2°56.018 126.3 -999 118 5.8
2011-08-01 07:04:02 51°13.637 2°56.018 126.3 -999 182 5.8
2011-08-01 07:04:07 51°13.637 2°56.018 126.3 -999 24 5.8
2011-08-01 07:04:12 51°13.637 2°56.018 126.3 -999 33 5.8
2011-08-01 07:04:17 51°13.637 2°56.017 126.3 -999 155 5.8
2011-08-01 07:04:22 51°13.638 2°56.017 126.2 -999 141 5.8
2011-08-01 07:04:27 51°13.638 2°56.017 126.2 -999 178 5.8
2011-08-01 07:04:32 51°13.638 2°56.017 126.2 -999 186 5.8
2011-08-01 07:04:37 51°13.638 2°56.017 126.2 -999 184 5.8
2011-08-01 07:04:41 51°13.638 2°56.017 126.2 -999 145 5.8
2011-08-01 07:04:47 51°13.638 2°56.017 126.2 -999 73 5.8
2011-08-01 07:04:52 51°13.638 2°56.017 126.2 -999 107 5.8
2011-08-01 07:04:58 51°13.638 2°56.017 126.2 -999 50 5.8
2011-08-01 07:05:02 51°13.638 2°56.017 126.2 -999 158 5.8
2011-08-01 07:05:07 51°13.638 2°56.017 126.2 -999 205 5.8
2011-08-01 07:05:12 51°13.638 2°56.017 126.2 -999 211 5.8
2011-08-01 07:05:17 51°13.638 2°56.017 126.2 -999 190 5.8
2011-08-01 07:05:22 51°13.638 2°56.018 126.2 -999 140 5.8
2011-08-01 07:05:27 51°13.638 2°56.018 126.2 -999 47 5.8
2011-08-01 07:05:32 51°13.638 2°56.018 126.2 -999 189 5.8
2011-08-01 07:05:37 51°13.638 2°56.018 126.2 -999 170 5.8
2011-08-01 07:05:42 51°13.638 2°56.017 126.2 -999 8 5.8
2011-08-01 07:05:47 51°13.638 2°56.017 126.2 -999 28 5.8
2011-08-01 07:05:52 51°13.638 2°56.017 126.2 -999 201 5.8
2011-08-01 07:05:58 51°13.638 2°56.017 126.2 -999 74 5.8
2011-08-01 07:06:02 51°13.638 2°56.017 126.2 -999 225 5.8
2011-08-01 07:06:07 51°13.638 2°56.017 126.2 -999 198 5.8
2011-08-01 07:06:12 51°13.638 2°56.017 126.2 -999 161 5.8
2011-08-01 07:06:17 51°13.638 2°56.017 126.2 -999 198 5.8
2011-08-01 07:06:22 51°13.638 2°56.017 126.2 -999 201 5.8
2011-08-01 07:06:27 51°13.638 2°56.017 126.2 -999 159 5.8
2011-08-01 07:06:32 51°13.638 2°56.017 126.2 -999 23 5.8
2011-08-01 07:06:37 51°13.638 2°56.018 126.2 -999 22 5.9
2011-08-01 07:06:42 51°13.638 2°56.017 126.2 -999 12 5.8
2011-08-01 07:06:46 51°13.638 2°56.017 126.2 -999 188 5.8
2011-08-01 07:06:52 51°13.638 2°56.017 126.2 -999 84 5.8
2011-08-01 07:06:57 51°13.638 2°56.017 126.2 -999 230 5.8
2011-08-01 07:07:02 51°13.638 2°56.017 126.2 -999 143 5.8
2011-08-01 07:07:07 51°13.638 2°56.017 126.2 -999 68 5.8
2011-08-01 07:07:12 51°13.638 2°56.017 126.2 -999 193 5.8
2011-08-01 07:07:17 51°13.638 2°56.017 126.2 -999 14 5.8
2011-08-01 07:07:22 51°13.637 2°56.017 126.2 -999 193 5.8
2011-08-01 07:07:27 51°13.637 2°56.017 126.2 -999 216 5.8
2011-08-01 07:07:32 51°13.637 2°56.017 126.2 -999 187 5.8
2011-08-01 07:07:37 51°13.637 2°56.017 126.2 -999 170 5.8
2011-08-01 07:07:42 51°13.637 2°56.017 126.2 -999 214 5.8
2011-08-01 07:07:46 51°13.637 2°56.017 126.2 -999 76 5.8
2011-08-01 07:07:52 51°13.637 2°56.017 126.2 -999 343 5.8
2011-08-01 07:07:57 51°13.637 2°56.017 126.2 -999 321 5.8
2011-08-01 07:08:02 51°13.637 2°56.017 126.2 -999 136 5.8
2011-08-01 07:08:06 51°13.637 2°56.017 126.2 -999 51 5.8
2011-08-01 07:08:12 51°13.637 2°56.017 126.2 -999 34 5.8
2011-08-01 07:08:17 51°13.637 2°56.017 126.2 -999 345 5.8
2011-08-01 07:08:22 51°13.637 2°56.017 126.2 -999 289 5.8
2011-08-01 07:08:26 51°13.637 2°56.017 126.2 -999 54 5.8
2011-08-01 07:08:32 51°13.637 2°56.017 126.2 -999 153 5.8
2011-08-01 07:08:37 51°13.637 2°56.017 126.2 -999 79 5.8
2011-08-01 07:08:42 51°13.637 2°56.017 126.2 -999 210 5.8
2011-08-01 07:08:47 51°13.637 2°56.017 126.2 -999 4 5.8
2011-08-01 07:08:52 51°13.637 2°56.017 126.2 -999 240 5.8
2011-08-01 07:08:57 51°13.637 2°56.017 126.1 -999 27 5.8
2011-08-01 07:09:02 51°13.637 2°56.017 126.1 -999 209 5.8
2011-08-01 07:09:06 51°13.637 2°56.018 126.1 -999 194 5.8
2011-08-01 07:09:12 51°13.637 2°56.018 126.1 -999 177 5.8
2011-08-01 07:09:17 51°13.637 2°56.018 126.1 -999 47 5.8
2011-08-01 07:09:22 51°13.637 2°56.018 126.1 -999 295 5.8
2011-08-01 07:09:27 51°13.637 2°56.018 126.1 -999 90 5.8
2011-08-01 07:09:32 51°13.637 2°56.018 126.1 -999 192 5.8
2011-08-01 07:09:37 51°13.637 2°56.018 126.1 -999 142 5.8
2011-08-01 07:09:42 51°13.637 2°56.018 126.1 -999 190 5.8
2011-08-01 07:09:47 51°13.637 2°56.018 126.1 -999 1 5.8
2011-08-01 07:09:52 51°13.637 2°56.018 126.1 -999 6 5.8
2011-08-01 07:09:57 51°13.637 2°56.018 126.1 -999 188 5.8
2011-08-01 07:10:02 51°13.637 2°56.018 126.1 -999 221 5.8
2011-08-01 07:10:07 51°13.637 2°56.018 126.1 -999 202 5.8
2011-08-01 07:10:12 51°13.637 2°56.018 126.1 -999 191 5.8
2011-08-01 07:10:17 51°13.637 2°56.018 126.1 -999 205 5.8
2011-08-01 07:10:22 51°13.637 2°56.018 126.1 -999 9 5.8
2011-08-01 07:10:27 51°13.637 2°56.018 126.1 -999 253 5.8
2011-08-01 07:10:32 51°13.637 2°56.018 126.1 -999 41 5.8
2011-08-01 07:10:37 51°13.637 2°56.018 126.2 -999 212 5.8
2011-08-01 07:10:43 51°13.637 2°56.018 126.2 -999 -999 5.8
2011-08-01 07:10:47 51°13.637 2°56.018 126.2 -999 354 5.8
2011-08-01 07:10:52 51°13.637 2°56.018 126.2 -999 206 5.8
2011-08-01 07:10:57 51°13.637 2°56.018 126.2 -999 184 5.8
2011-08-01 07:11:03 51°13.637 2°56.018 126.1 -999 286 5.8
2011-08-01 07:11:07 51°13.637 2°56.018 126 -999 111 5.8
2011-08-01 07:11:12 51°13.637 2°56.018 125.9 -999 193 5.8
2011-08-01 07:11:17 51°13.637 2°56.018 125.9 -999 236 5.8
2011-08-01 07:11:22 51°13.637 2°56.018 125.9 -999 177 5.8
2011-08-01 07:11:27 51°13.637 2°56.018 125.9 -999 256 5.8
2011-08-01 07:11:32 51°13.638 2°56.018 125.9 -999 52 5.8
2011-08-01 07:11:37 51°13.637 2°56.018 125.9 -999 184 5.8
2011-08-01 07:11:42 51°13.637 2°56.018 125.9 -999 192 5.8
2011-08-01 07:11:47 51°13.637 2°56.018 125.9 -999 92 5.8
2011-08-01 07:11:52 51°13.637 2°56.018 125.9 -999 120 5.8
2011-08-01 07:11:57 51°13.637 2°56.018 125.9 -999 213 5.8
2011-08-01 07:12:02 51°13.637 2°56.018 125.9 -999 186 5.8
2011-08-01 07:12:07 51°13.638 2°56.018 125.9 -999 27 5.8
2011-08-01 07:12:12 51°13.638 2°56.018 125.9 -999 323 5.8
2011-08-01 07:12:17 51°13.638 2°56.018 125.9 -999 192 5.8
2011-08-01 07:12:22 51°13.638 2°56.018 125.9 -999 18 5.8
2011-08-01 07:12:27 51°13.638 2°56.018 125.9 -999 24 5.8
2011-08-01 07:12:32 51°13.638 2°56.018 125.9 -999 66 5.8
2011-08-01 07:12:37 51°13.638 2°56.018 125.9 -999 22 5.8
2011-08-01 07:12:42 51°13.638 2°56.018 125.9 -999 232 5.8
2011-08-01 07:12:47 51°13.638 2°56.018 125.9 -999 201 5.8
2011-08-01 07:12:51 51°13.638 2°56.018 125.9 -999 255 5.8
2011-08-01 07:12:57 51°13.638 2°56.018 125.9 -999 217 5.8
2011-08-01 07:13:02 51°13.638 2°56.019 125.9 -999 164 5.8
2011-08-01 07:13:07 51°13.638 2°56.019 125.9 -999 353 5.8
2011-08-01 07:13:12 51°13.638 2°56.019 125.9 -999 355 5.8
2011-08-01 07:13:17 51°13.638 2°56.019 125.9 -999 355 -999
2011-08-01 07:13:23 51°13.638 2°56.019 125.9 -999 233 -999
2011-08-01 07:13:29 51°13.638 2°56.019 125.9 -999 215 -999
2011-08-01 07:13:35 51°13.638 2°56.019 125.9 -999 299 -999
2011-08-01 07:13:39 51°13.638 2°56.019 125.9 -999 220 5.8
2011-08-01 07:13:44 51°13.638 2°56.019 125.9 -999 29 5.8
2011-08-01 07:13:49 51°13.638 2°56.019 125.9 -999 75 5.8
2011-08-01 07:13:54 51°13.638 2°56.019 125.9 -999 194 5.8
2011-08-01 07:13:59 51°13.638 2°56.019 125.9 -999 132 5.8
2011-08-01 07:14:04 51°13.638 2°56.019 125.9 -999 218 5.8
2011-08-01 07:14:09 51°13.638 2°56.019 125.9 -999 79 5.8
2011-08-01 07:14:14 51°13.638 2°56.019 125.9 -999 21 5.8
2011-08-01 07:14:19 51°13.638 2°56.019 125.9 -999 327 5.8
2011-08-01 07:14:23 51°13.638 2°56.019 125.9 -999 241 5.8
2011-08-01 07:14:28 51°13.638 2°56.019 125.9 -999 167 5.8
2011-08-01 07:14:33 51°13.638 2°56.019 125.9 -999 208 5.8
2011-08-01 07:14:38 51°13.638 2°56.019 125.9 -999 184 5.8
2011-08-01 07:14:43 51°13.638 2°56.019 125.9 -999 200 5.8
2011-08-01 07:14:47 51°13.638 2°56.019 125.9 -999 122 5.8
2011-08-01 07:14:52 51°13.638 2°56.019 125.9 -999 327 5.8
2011-08-01 07:14:57 51°13.638 2°56.019 125.9 -999 227 5.8
2011-08-01 07:15:02 51°13.638 2°56.019 125.9 -999 174 5.8
2011-08-01 07:15:07 51°13.638 2°56.019 125.9 -999 177 5.8
2011-08-01 07:15:12 51°13.638 2°56.019 125.9 -999 44 5.8
2011-08-01 07:15:17 51°13.638 2°56.019 125.9 -999 184 5.8
2011-08-01 07:15:22 51°13.638 2°56.019 125.9 -999 67 5.8
2011-08-01 07:15:27 51°13.638 2°56.019 125.9 -999 168 5.8
2011-08-01 07:15:32 51°13.638 2°56.019 125.9 -999 96 5.8
2011-08-01 07:15:37 51°13.638 2°56.019 125.9 -999 159 5.8
2011-08-01 07:15:42 51°13.638 2°56.019 126 -999 273 5.8
2011-08-01 07:15:47 51°13.638 2°56.019 126 -999 27 5.8
2011-08-01 07:15:52 51°13.638 2°56.019 126 -999 72 5.8
2011-08-01 07:15:57 51°13.638 2°56.019 125.9 -999 185 5.8
2011-08-01 07:16:02 51°13.638 2°56.019 125.9 -999 204 5.8
2011-08-01 07:16:07 51°13.638 2°56.019 125.9 -999 172 5.8
2011-08-01 07:16:12 51°13.638 2°56.019 125.9 -999 22 5.8
2011-08-01 07:16:17 51°13.638 2°56.019 125.9 -999 110 5.8
2011-08-01 07:16:22 51°13.638 2°56.019 125.9 -999 35 5.8
2011-08-01 07:16:27 51°13.638 2°56.019 125.9 -999 79 5.8
2011-08-01 07:16:32 51°13.638 2°56.019 125.9 -999 186 5.8
2011-08-01 07:16:37 51°13.637 2°56.019 125.9 0.1 186 5.8
2011-08-01 07:16:42 51°13.637 2°56.019 125.9 -999 188 5.8
2011-08-01 07:16:47 51°13.637 2°56.019 125.9 -999 27 5.8
2011-08-01 07:16:52 51°13.637 2°56.019 125.9 -999 334 5.8
2011-08-01 07:16:57 51°13.637 2°56.019 125.9 -999 221 5.8
2011-08-01 07:17:02 51°13.637 2°56.019 125.9 -999 185 5.8
2011-08-01 07:17:07 51°13.637 2°56.019 125.9 -999 87 5.8
2011-08-01 07:17:12 51°13.637 2°56.019 125.9 -999 16 5.8
2011-08-01 07:17:17 51°13.637 2°56.019 125.9 -999 307 5.8
2011-08-01 07:17:22 51°13.637 2°56.019 125.9 -999 43 5.8
2011-08-01 07:17:27 51°13.637 2°56.019 125.9 -999 337 5.8
2011-08-01 07:17:32 51°13.637 2°56.019 125.9 -999 222 5.8
2011-08-01 07:17:37 51°13.637 2°56.019 125.9 -999 192 5.8
2011-08-01 07:17:42 51°13.637 2°56.019 125.9 -999 73 5.8
2011-08-01 07:17:47 51°13.637 2°56.019 125.9 -999 58 5.8
2011-08-01 07:17:52 51°13.637 2°56.019 125.9 -999 203 5.8
2011-08-01 07:17:57 51°13.637 2°56.019 125.9 -999 221 5.8
2011-08-01 07:18:02 51°13.637 2°56.019 126 -999 192 5.8
2011-08-01 07:18:07 51°13.637 2°56.019 126 -999 182 5.8
2011-08-01 07:18:12 51°13.637 2°56.019 126 -999 116 5.8
2011-08-01 07:18:17 51°13.637 2°56.019 126 -999 350 5.8
2011-08-01 07:18:22 51°13.637 2°56.019 126 -999 195 5.8
2011-08-01 07:18:27 51°13.637 2°56.019 126 -999 197 5.8
2011-08-01 07:18:32 51°13.637 2°56.019 126 -999 15 5.8
2011-08-01 07:18:37 51°13.637 2°56.019 126 -999 1 5.8
2011-08-01 07:18:42 51°13.637 2°56.019 126 -999 7 5.8
2011-08-01 07:18:47 51°13.637 2°56.019 126 -999 205 5.8
2011-08-01 07:18:52 51°13.637 2°56.019 126 -999 195 5.8
2011-08-01 07:18:57 51°13.637 2°56.019 126 -999 16 5.8
2011-08-01 07:19:02 51°13.637 2°56.019 126 -999 330 5.8
2011-08-01 07:19:07 51°13.637 2°56.019 126 -999 111 5.8
2011-08-01 07:19:12 51°13.637 2°56.019 126 -999 27 5.8
2011-08-01 07:19:17 51°13.637 2°56.019 126 -999 25 5.8
2011-08-01 07:19:22 51°13.637 2°56.019 125.9 -999 36 5.8
2011-08-01 07:19:27 51°13.637 2°56.019 125.9 0.1 14 5.7
2011-08-01 07:19:32 51°13.637 2°56.019 125.9 -999 13 5.8
2011-08-01 07:19:37 51°13.637 2°56.019 125.9 -999 282 5.8
2011-08-01 07:19:42 51°13.637 2°56.019 125.9 -999 347 5.8
2011-08-01 07:19:47 51°13.637 2°56.019 125.9 -999 12 5.8
2011-08-01 07:19:52 51°13.637 2°56.019 125.9 -999 171 5.8
2011-08-01 07:19:57 51°13.637 2°56.019 125.9 -999 185 5.8
2011-08-01 07:20:02 51°13.637 2°56.018 125.9 -999 143 5.8
2011-08-01 07:20:07 51°13.637 2°56.018 125.9 -999 125 5.8
2011-08-01 07:20:12 51°13.637 2°56.018 125.9 -999 201 5.8
2011-08-01 07:20:17 51°13.637 2°56.018 125.9 -999 157 5.8
2011-08-01 07:20:22 51°13.637 2°56.018 125.9 0.1 201 5.8
2011-08-01 07:20:27 51°13.637 2°56.018 125.9 -999 197 5.8
2011-08-01 07:20:32 51°13.637 2°56.018 125.9 -999 199 5.7
2011-08-01 07:20:37 51°13.637 2°56.018 125.9 -999 175 5.8
2011-08-01 07:20:42 51°13.637 2°56.018 125.9 -999 240 5.8
2011-08-01 07:20:47 51°13.637 2°56.018 125.9 -999 206 5.8
2011-08-01 07:20:52 51°13.637 2°56.018 125.9 -999 353 5.8
2011-08-01 07:20:57 51°13.637 2°56.018 125.9 -999 321 5.8
2011-08-01 07:21:02 51°13.637 2°56.018 125.9 -999 21 5.7
2011-08-01 07:21:07 51°13.637 2°56.018 125.9 -999 219 5.8
2011-08-01 07:21:12 51°13.637 2°56.018 125.9 -999 200 5.8
2011-08-01 07:21:17 51°13.637 2°56.018 125.9 -999 193 5.8
2011-08-01 07:21:22 51°13.637 2°56.018 125.9 -999 302 5.7
2011-08-01 07:21:27 51°13.637 2°56.018 125.9 -999 206 5.7
2011-08-01 07:21:32 51°13.637 2°56.018 125.9 -999 251 5.8
2011-08-01 07:21:37 51°13.637 2°56.018 125.9 -999 199 5.8
2011-08-01 07:21:42 51°13.637 2°56.018 125.9 -999 199 5.8
2011-08-01 07:21:47 51°13.637 2°56.017 125.9 -999 186 5.8
2011-08-01 07:21:52 51°13.637 2°56.017 125.9 -999 69 5.8
2011-08-01 07:21:56 51°13.637 2°56.017 126 -999 125 5.8
2011-08-01 07:22:02 51°13.637 2°56.017 126 -999 15 5.8
2011-08-01 07:22:07 51°13.637 2°56.017 126 -999 21 5.8
2011-08-01 07:22:12 51°13.637 2°56.017 126 -999 358 5.8
2011-08-01 07:22:17 51°13.637 2°56.017 126 -999 229 5.8
2011-08-01 07:22:22 51°13.637 2°56.017 125.9 -999 211 5.8
2011-08-01 07:22:27 51°13.637 2°56.017 125.9 -999 30 5.8
2011-08-01 07:22:32 51°13.637 2°56.017 125.9 -999 151 5.8
2011-08-01 07:22:37 51°13.637 2°56.017 125.9 -999 249 5.8
2011-08-01 07:22:42 51°13.637 2°56.017 125.9 -999 206 5.8
2011-08-01 07:22:47 51°13.637 2°56.017 125.9 -999 182 5.8
2011-08-01 07:22:52 51°13.637 2°56.017 125.9 -999 192 5.8
2011-08-01 07:22:57 51°13.637 2°56.017 125.9 -999 208 5.8
2011-08-01 07:23:02 51°13.637 2°56.017 125.9 -999 54 5.8
2011-08-01 07:23:07 51°13.637 2°56.017 125.9 -999 237 5.8
2011-08-01 07:23:12 51°13.637 2°56.017 125.9 -999 228 5.8
2011-08-01 07:23:17 51°13.637 2°56.017 125.9 -999 186 5.8
2011-08-01 07:23:22 51°13.637 2°56.017 125.9 -999 346 5.8
2011-08-01 07:23:27 51°13.637 2°56.017 125.9 -999 21 5.8
2011-08-01 07:23:32 51°13.637 2°56.017 125.9 -999 358 5.8
2011-08-01 07:23:37 51°13.637 2°56.017 125.9 -999 261 5.7
2011-08-01 07:23:42 51°13.637 2°56.017 125.9 -999 90 5.7
2011-08-01 07:23:47 51°13.638 2°56.017 125.9 -999 195 5.8
2011-08-01 07:23:52 51°13.638 2°56.017 125.9 -999 280 5.8
2011-08-01 07:23:57 51°13.638 2°56.017 125.8 -999 284 5.7
2011-08-01 07:24:02 51°13.638 2°56.017 125.8 -999 201 5.8
2011-08-01 07:24:07 51°13.638 2°56.017 125.8 -999 222 5.8
2011-08-01 07:24:12 51°13.638 2°56.017 125.8 -999 198 5.7
2011-08-01 07:24:17 51°13.638 2°56.017 125.8 -999 200 5.8
2011-08-01 07:24:22 51°13.638 2°56.018 125.8 -999 231 5.8
2011-08-01 07:24:27 51°13.638 2°56.018 125.8 -999 188 5.8
2011-08-01 07:24:32 51°13.638 2°56.018 125.8 -999 155 5.8
2011-08-01 07:24:37 51°13.637 2°56.018 125.8 -999 228 5.8
2011-08-01 07:24:42 51°13.637 2°56.018 125.8 -999 171 5.8
2011-08-01 07:24:47 51°13.637 2°56.018 125.8 -999 21 5.8
2011-08-01 07:24:52 51°13.637 2°56.018 125.7 -999 8 5.8
2011-08-01 07:24:57 51°13.637 2°56.018 125.7 -999 176 5.8
2011-08-01 07:25:02 51°13.638 2°56.018 125.7 -999 168 5.8
2011-08-01 07:25:07 51°13.638 2°56.018 125.7 -999 32 5.8
2011-08-01 07:25:12 51°13.638 2°56.018 125.7 -999 305 5.8
2011-08-01 07:25:17 51°13.638 2°56.018 125.7 -999 326 5.8
2011-08-01 07:25:22 51°13.638 2°56.018 125.7 -999 242 5.8
2011-08-01 07:25:27 51°13.638 2°56.018 125.7 -999 1 5.8
2011-08-01 07:25:32 51°13.638 2°56.018 125.7 -999 74 5.8
2011-08-01 07:25:37 51°13.638 2°56.018 125.7 -999 2 5.8
2011-08-01 07:25:42 51°13.638 2°56.018 125.7 -999 158 5.8
2011-08-01 07:25:47 51°13.637 2°56.018 125.7 -999 94 5.8
2011-08-01 07:25:52 51°13.637 2°56.018 125.7 -999 32 5.8
2011-08-01 07:25:57 51°13.637 2°56.018 125.7 -999 137 5.8
2011-08-01 07:26:02 51°13.637 2°56.018 125.7 -999 274 5.8
2011-08-01 07:26:07 51°13.637 2°56.019 125.7 -999 216 5.8
2011-08-01 07:26:11 51°13.637 2°56.019 125.7 -999 239 5.8
2011-08-01 07:26:17 51°13.637 2°56.019 125.7 -999 6 5.8
2011-08-01 07:26:22 51°13.637 2°56.019 125.7 -999 29 5.8
2011-08-01 07:26:27 51°13.637 2°56.019 125.7 -999 201 5.8
2011-08-01 07:26:31 51°13.637 2°56.019 125.7 -999 184 5.8
2011-08-01 07:26:37 51°13.637 2°56.019 125.7 -999 353 5.8
2011-08-01 07:26:42 51°13.637 2°56.019 125.7 -999 1 5.8
2011-08-01 07:26:47 51°13.637 2°56.019 125.7 -999 328 5.8
2011-08-01 07:26:52 51°13.637 2°56.019 125.7 -999 18 5.8
2011-08-01 07:26:57 51°13.637 2°56.019 125.7 -999 38 5.8
2011-08-01 07:27:02 51°13.637 2°56.019 125.7 -999 98 5.8
2011-08-01 07:27:07 51°13.637 2°56.019 125.7 -999 328 5.8
2011-08-01 07:27:12 51°13.637 2°56.019 125.7 -999 241 5.8
2011-08-01 07:27:17 51°13.637 2°56.019 125.7 -999 236 5.8
2011-08-01 07:27:22 51°13.637 2°56.019 125.7 -999 151 5.8
2011-08-01 07:27:27 51°13.637 2°56.019 125.7 -999 213 5.8
2011-08-01 07:27:32 51°13.637 2°56.018 125.7 -999 290 5.8
2011-08-01 07:27:37 51°13.638 2°56.019 125.7 -999 21 5.8
2011-08-01 07:27:42 51°13.638 2°56.02 125.7 -999 337 5.8
2011-08-01 07:27:47 51°13.638 2°56.02 125.7 -999 323 5.8
2011-08-01 07:27:52 51°13.638 2°56.02 125.7 -999 254 5.8
2011-08-01 07:27:57 51°13.638 2°56.02 125.7 -999 189 5.8
2011-08-01 07:28:02 51°13.638 2°56.02 125.7 -999 165 5.8
2011-08-01 07:28:07 51°13.637 2°56.018 125.7 -999 212 5.8
2011-08-01 07:28:12 51°13.637 2°56.018 125.7 -999 356 5.8
2011-08-01 07:28:17 51°13.636 2°56.018 125.7 -999 180 5.7
2011-08-01 07:28:22 51°13.637 2°56.018 125.7 -999 9 5.8
2011-08-01 07:28:27 51°13.636 2°56.018 125.7 -999 343 5.8
2011-08-01 07:28:32 51°13.636 2°56.018 125.7 -999 185 5.7
2011-08-01 07:28:37 51°13.636 2°56.018 125.7 -999 193 5.8
2011-08-01 07:28:42 51°13.636 2°56.018 125.7 -999 197 5.8
2011-08-01 07:28:47 51°13.636 2°56.018 125.7 -999 41 5.8
2011-08-01 07:28:52 51°13.636 2°56.018 125.7 -999 190 5.7
2011-08-01 07:28:57 51°13.636 2°56.018 125.7 -999 312 5.8
2011-08-01 07:29:02 51°13.636 2°56.018 125.7 -999 219 5.8
2011-08-01 07:29:07 51°13.636 2°56.018 125.7 -999 185 5.8
2011-08-01 07:29:12 51°13.636 2°56.018 125.7 -999 311 5.8
2011-08-01 07:29:16 51°13.636 2°56.018 125.7 -999 7 5.8
2011-08-01 07:29:22 51°13.636 2°56.018 125.7 -999 19 5.8
2011-08-01 07:29:27 51°13.636 2°56.018 125.7 -999 13 5.8
2011-08-01 07:29:32 51°13.636 2°56.018 125.7 -999 348 5.8
2011-08-01 07:29:37 51°13.636 2°56.018 125.7 -999 237 5.8
2011-08-01 07:29:42 51°13.636 2°56.018 125.7 -999 218 5.8
2011-08-01 07:29:47 51°13.636 2°56.017 125.7 -999 305 5.8
2011-08-01 07:29:52 51°13.636 2°56.017 125.7 -999 27 5.8
2011-08-01 07:29:57 51°13.636 2°56.017 125.7 -999 271 5.8
2011-08-01 07:30:02 51°13.636 2°56.017 125.7 -999 243 5.8
2011-08-01 07:30:07 51°13.636 2°56.017 125.7 -999 15 5.8
2011-08-01 07:30:12 51°13.636 2°56.017 125.7 -999 347 5.8
2011-08-01 07:30:17 51°13.636 2°56.017 125.7 -999 289 5.8
2011-08-01 07:30:22 51°13.636 2°56.017 125.7 -999 6 5.8
2011-08-01 07:30:27 51°13.636 2°56.017 125.7 -999 20 5.8
2011-08-01 07:30:32 51°13.636 2°56.017 125.7 -999 176 5.8
2011-08-01 07:30:37 51°13.635 2°56.017 125.7 -999 11 5.8
2011-08-01 07:30:42 51°13.635 2°56.018 125.7 -999 279 5.8
2011-08-01 07:30:47 51°13.636 2°56.018 125.7 -999 1 5.8
2011-08-01 07:30:52 51°13.636 2°56.018 125.7 -999 209 5.8
2011-08-01 07:30:56 51°13.636 2°56.018 125.7 -999 253 5.8
2011-08-01 07:31:02 51°13.636 2°56.018 125.7 -999 213 5.8
2011-08-01 07:31:07 51°13.635 2°56.018 125.7 -999 263 5.8
2011-08-01 07:31:12 51°13.635 2°56.018 125.7 -999 11 5.8
2011-08-01 07:31:17 51°13.635 2°56.018 125.7 -999 208 5.8
2011-08-01 07:31:22 51°13.635 2°56.018 125.7 -999 203 5.8
2011-08-01 07:31:27 51°13.635 2°56.018 125.7 -999 329 5.8
2011-08-01 07:31:32 51°13.635 2°56.018 125.7 -999 232 5.8
2011-08-01 07:31:37 51°13.635 2°56.018 125.7 -999 200 5.8
2011-08-01 07:31:42 51°13.635 2°56.018 125.7 -999 355 5.8
2011-08-01 07:31:47 51°13.635 2°56.018 125.7 -999 347 5.8
2011-08-01 07:31:52 51°13.635 2°56.018 125.7 -999 183 5.8
2011-08-01 07:31:57 51°13.635 2°56.018 125.7 -999 215 5.8
2011-08-01 07:32:02 51°13.635 2°56.018 125.7 -999 10 5.8
2011-08-01 07:32:07 51°13.635 2°56.018 125.7 -999 188 5.8
2011-08-01 07:32:12 51°13.635 2°56.018 125.7 -999 60 5.8
2011-08-01 07:32:17 51°13.635 2°56.018 125.7 -999 243 5.8
2011-08-01 07:32:22 51°13.635 2°56.018 125.7 -999 196 5.8
2011-08-01 07:32:27 51°13.635 2°56.018 125.7 -999 184 5.7
2011-08-01 07:32:32 51°13.635 2°56.018 125.7 -999 180 5.8
2011-08-01 07:32:37 51°13.635 2°56.018 125.7 -999 330 5.8
2011-08-01 07:32:42 51°13.635 2°56.018 125.7 -999 330 5.8
2011-08-01 07:32:47 51°13.635 2°56.018 125.7 -999 247 5.8
2011-08-01 07:32:51 51°13.635 2°56.018 125.7 -999 179 5.8
2011-08-01 07:32:57 51°13.635 2°56.018 125.7 -999 182 5.8
2011-08-01 07:33:02 51°13.635 2°56.018 125.7 -999 276 5.8
2011-08-01 07:33:07 51°13.635 2°56.018 125.7 -999 196 5.8
2011-08-01 07:33:12 51°13.635 2°56.018 125.7 -999 204 5.8
2011-08-01 07:33:17 51°13.635 2°56.018 125.7 -999 271 5.8
2011-08-01 07:33:22 51°13.635 2°56.019 125.7 -999 349 5.8
2011-08-01 07:33:27 51°13.635 2°56.019 125.7 -999 215 5.8
2011-08-01 07:33:32 51°13.635 2°56.019 125.7 -999 272 5.8
2011-08-01 07:33:37 51°13.636 2°56.019 125.7 -999 358 5.8
2011-08-01 07:33:42 51°13.636 2°56.019 125.7 -999 334 5.8
2011-08-01 07:33:47 51°13.636 2°56.019 125.7 -999 283 5.8
2011-08-01 07:33:52 51°13.636 2°56.019 125.7 -999 321 5.8
2011-08-01 07:33:57 51°13.636 2°56.019 125.7 -999 305 5.8
2011-08-01 07:34:02 51°13.636 2°56.019 125.7 -999 350 5.8
2011-08-01 07:34:07 51°13.636 2°56.019 125.7 -999 180 5.8
2011-08-01 07:34:12 51°13.637 2°56.019 125.7 -999 248 5.8
2011-08-01 07:34:17 51°13.637 2°56.019 125.7 -999 261 5.8
2011-08-01 07:34:22 51°13.637 2°56.019 125.7 -999 247 5.8
2011-08-01 07:34:27 51°13.637 2°56.018 125.7 -999 357 5.8
2011-08-01 07:34:32 51°13.636 2°56.018 125.7 -999 280 5.8
2011-08-01 07:34:37 51°13.636 2°56.018 125.7 -999 12 5.8
2011-08-01 07:34:42 51°13.636 2°56.018 125.7 -999 232 5.8
2011-08-01 07:34:47 51°13.636 2°56.018 125.7 -999 230 5.8
2011-08-01 07:34:52 51°13.637 2°56.018 125.7 -999 259 5.8
2011-08-01 07:34:57 51°13.637 2°56.018 125.7 -999 230 5.8
2011-08-01 07:35:02 51°13.637 2°56.018 125.7 -999 254 5.8